sensor_id;sensor_type;location;lat;lon;timestamp;P1;durP1;ratioP1;P2;durP2;ratioP2
18689;SDS011;9782;52.930;15.562;2023-01-30T17:40:34;5.50;;;1.40;;
18689;SDS011;9782;52.930;15.562;2023-01-30T17:43:02;3.03;;;1.20;;
18689;SDS011;9782;52.930;15.562;2023-01-30T17:45:29;1.50;;;1.00;;
18689;SDS011;9782;52.930;15.562;2023-01-30T17:47:56;6.77;;;1.77;;
18689;SDS011;9782;52.930;15.562;2023-01-30T17:50:23;2.00;;;1.00;;
18689;SDS011;9782;52.930;15.562;2023-01-30T17:52:52;3.50;;;1.00;;
18689;SDS011;9782;52.930;15.562;2023-01-30T17:55:19;5.40;;;1.97;;
18689;SDS011;9782;52.930;15.562;2023-01-30T17:57:47;6.57;;;2.40;;
18689;SDS011;9782;52.930;15.562;2023-01-30T18:00:16;5.43;;;1.33;;
18689;SDS011;9782;52.930;15.562;2023-01-30T18:02:44;5.17;;;2.03;;
18689;SDS011;9782;52.930;15.562;2023-01-30T18:05:11;4.87;;;1.63;;
18689;SDS011;9782;52.930;15.562;2023-01-30T18:07:38;2.47;;;1.43;;
18689;SDS011;9782;52.930;15.562;2023-01-30T18:10:07;2.30;;;1.13;;
18689;SDS011;9782;52.930;15.562;2023-01-30T18:12:37;3.13;;;1.30;;
18689;SDS011;9782;52.930;15.562;2023-01-30T18:15:06;3.63;;;1.63;;
18689;SDS011;9782;52.930;15.562;2023-01-30T18:17:34;6.17;;;1.33;;
18689;SDS011;9782;52.930;15.562;2023-01-30T18:20:06;2.67;;;1.30;;
18689;SDS011;9782;52.930;15.562;2023-01-30T18:22:35;3.50;;;1.23;;
18689;SDS011;9782;52.930;15.562;2023-01-30T18:25:02;3.00;;;1.00;;
18689;SDS011;9782;52.930;15.562;2023-01-30T18:27:30;4.30;;;1.10;;
18689;SDS011;9782;52.930;15.562;2023-01-30T18:29:57;2.77;;;1.20;;
18689;SDS011;9782;52.930;15.562;2023-01-30T18:32:25;3.83;;;1.40;;
18689;SDS011;9782;52.930;15.562;2023-01-30T18:34:52;5.53;;;2.00;;
18689;SDS011;9782;52.930;15.562;2023-01-30T18:37:19;4.90;;;3.17;;
18689;SDS011;9782;52.930;15.562;2023-01-30T18:39:46;6.23;;;4.37;;
18689;SDS011;9782;52.930;15.562;2023-01-30T18:42:13;2.27;;;1.47;;
18689;SDS011;9782;52.930;15.562;2023-01-30T18:44:40;8.67;;;3.80;;
18689;SDS011;9782;52.930;15.562;2023-01-30T18:47:07;8.67;;;6.17;;
18689;SDS011;9782;52.930;15.562;2023-01-30T18:49:35;5.30;;;3.63;;
18689;SDS011;9782;52.930;15.562;2023-01-30T18:52:02;6.13;;;3.43;;
18689;SDS011;9782;52.930;15.562;2023-01-30T18:54:29;5.63;;;3.43;;
18689;SDS011;9782;52.930;15.562;2023-01-30T18:56:56;9.97;;;4.30;;
18689;SDS011;9782;52.930;15.562;2023-01-30T18:59:23;20.53;;;9.77;;
18689;SDS011;9782;52.930;15.562;2023-01-30T19:01:50;35.40;;;16.67;;
18689;SDS011;9782;52.930;15.562;2023-01-30T19:04:17;202.13;;;63.43;;
18689;SDS011;9782;52.930;15.562;2023-01-30T19:06:46;66.87;;;24.73;;
18689;SDS011;9782;52.930;15.562;2023-01-30T19:09:13;63.07;;;24.60;;
18689;SDS011;9782;52.930;15.562;2023-01-30T19:11:42;68.77;;;25.87;;
18689;SDS011;9782;52.930;15.562;2023-01-30T19:14:26;67.20;;;22.20;;
18689;SDS011;9782;52.930;15.562;2023-01-30T19:16:53;40.00;;;15.27;;
18689;SDS011;9782;52.930;15.562;2023-01-30T19:19:20;29.67;;;14.00;;
18689;SDS011;9782;52.930;15.562;2023-01-30T19:21:48;21.13;;;9.80;;
18689;SDS011;9782;52.930;15.562;2023-01-30T19:24:16;12.33;;;6.87;;
18689;SDS011;9782;52.930;15.562;2023-01-30T19:26:43;12.40;;;5.10;;
18689;SDS011;9782;52.930;15.562;2023-01-30T19:29:10;6.20;;;3.53;;
18689;SDS011;9782;52.930;15.562;2023-01-30T19:31:37;8.43;;;3.50;;
18689;SDS011;9782;52.930;15.562;2023-01-30T19:34:04;9.13;;;3.80;;
18689;SDS011;9782;52.930;15.562;2023-01-30T19:36:33;10.00;;;3.87;;
18689;SDS011;9782;52.930;15.562;2023-01-30T19:39:02;6.07;;;2.70;;
18689;SDS011;9782;52.930;15.562;2023-01-30T19:41:31;5.80;;;2.30;;
18689;SDS011;9782;52.930;15.562;2023-01-30T19:43:59;5.87;;;2.87;;
18689;SDS011;9782;52.930;15.562;2023-01-30T19:46:27;5.23;;;2.40;;
18689;SDS011;9782;52.930;15.562;2023-01-30T19:48:54;9.63;;;2.40;;
18689;SDS011;9782;52.930;15.562;2023-01-30T19:51:22;8.43;;;2.40;;
18689;SDS011;9782;52.930;15.562;2023-01-30T19:53:51;9.63;;;2.93;;
18689;SDS011;9782;52.930;15.562;2023-01-30T19:56:20;3.20;;;1.60;;
18689;SDS011;9782;52.930;15.562;2023-01-30T19:58:49;6.80;;;1.90;;
18689;SDS011;9782;52.930;15.562;2023-01-30T20:01:19;8.70;;;2.73;;
18689;SDS011;9782;52.930;15.562;2023-01-30T20:03:47;8.20;;;2.57;;
18689;SDS011;9782;52.930;15.562;2023-01-30T20:06:16;9.70;;;2.37;;
18689;SDS011;9782;52.930;15.562;2023-01-30T20:08:45;10.97;;;3.07;;
18689;SDS011;9782;52.930;15.562;2023-01-30T20:11:14;13.70;;;2.43;;
18689;SDS011;9782;52.930;15.562;2023-01-30T20:13:47;8.87;;;2.27;;
18689;SDS011;9782;52.930;15.562;2023-01-30T20:16:15;13.57;;;2.67;;
18689;SDS011;9782;52.930;15.562;2023-01-30T20:18:44;12.93;;;2.93;;
18689;SDS011;9782;52.930;15.562;2023-01-30T20:21:13;11.93;;;2.63;;
18689;SDS011;9782;52.930;15.562;2023-01-30T20:23:41;12.03;;;2.50;;
18689;SDS011;9782;52.930;15.562;2023-01-30T20:26:10;10.63;;;2.53;;
18689;SDS011;9782;52.930;15.562;2023-01-30T20:28:39;12.00;;;2.97;;
18689;SDS011;9782;52.930;15.562;2023-01-30T20:31:10;8.03;;;2.47;;
18689;SDS011;9782;52.930;15.562;2023-01-30T20:33:38;7.27;;;2.67;;
18689;SDS011;9782;52.930;15.562;2023-01-30T20:36:07;12.07;;;2.67;;
18689;SDS011;9782;52.930;15.562;2023-01-30T20:38:36;14.80;;;2.90;;
18689;SDS011;9782;52.930;15.562;2023-01-30T20:41:05;15.70;;;3.23;;
18689;SDS011;9782;52.930;15.562;2023-01-30T20:43:34;14.90;;;2.80;;
18689;SDS011;9782;52.930;15.562;2023-01-30T20:46:06;12.90;;;2.67;;
18689;SDS011;9782;52.930;15.562;2023-01-30T20:48:36;15.03;;;2.90;;
18689;SDS011;9782;52.930;15.562;2023-01-30T20:51:04;8.37;;;2.33;;
18689;SDS011;9782;52.930;15.562;2023-01-30T20:53:34;11.30;;;2.73;;
18689;SDS011;9782;52.930;15.562;2023-01-30T20:56:02;15.97;;;2.93;;
18689;SDS011;9782;52.930;15.562;2023-01-30T20:58:30;14.97;;;3.23;;
18689;SDS011;9782;52.930;15.562;2023-01-30T21:01:04;11.80;;;2.00;;
18689;SDS011;9782;52.930;15.562;2023-01-30T21:03:34;16.53;;;3.10;;
18689;SDS011;9782;52.930;15.562;2023-01-30T21:06:01;18.93;;;3.23;;
18689;SDS011;9782;52.930;15.562;2023-01-30T21:08:29;19.93;;;3.83;;
18689;SDS011;9782;52.930;15.562;2023-01-30T21:11:01;10.10;;;2.50;;
18689;SDS011;9782;52.930;15.562;2023-01-30T21:13:30;11.87;;;2.93;;
18689;SDS011;9782;52.930;15.562;2023-01-30T21:16:01;12.13;;;2.93;;
18689;SDS011;9782;52.930;15.562;2023-01-30T21:18:30;20.13;;;3.13;;
18689;SDS011;9782;52.930;15.562;2023-01-30T21:21:00;23.07;;;3.37;;
18689;SDS011;9782;52.930;15.562;2023-01-30T21:23:28;11.50;;;2.27;;
18689;SDS011;9782;52.930;15.562;2023-01-30T21:25:55;10.70;;;3.60;;
18689;SDS011;9782;52.930;15.562;2023-01-30T21:28:22;13.20;;;3.50;;
18689;SDS011;9782;52.930;15.562;2023-01-30T21:30:49;13.17;;;2.73;;
